sensor_id;sensor_type;location;lat;lon;timestamp;pressure;altitude;pressure_sealevel;temperature;humidity
59757;BME280;45631;51.962;5.974;2022-09-12T00:01:21;101629.94;;;14.28;100.00
59757;BME280;45631;51.962;5.974;2022-09-12T00:03:51;101627.19;;;14.29;100.00
59757;BME280;45631;51.962;5.974;2022-09-12T00:06:21;101632.03;;;14.35;100.00
59757;BME280;45631;51.962;5.974;2022-09-12T00:08:49;101624.09;;;14.35;100.00
59757;BME280;45631;51.962;5.974;2022-09-12T00:11:18;101626.97;;;14.32;100.00
59757;BME280;45631;51.962;5.974;2022-09-12T00:13:47;101628.22;;;14.27;100.00
59757;BME280;45631;51.962;5.974;2022-09-12T00:16:16;101623.59;;;14.30;100.00
59757;BME280;45631;51.962;5.974;2022-09-12T00:18:44;101620.63;;;14.22;100.00
59757;BME280;45631;51.962;5.974;2022-09-12T00:21:14;101621.47;;;14.10;100.00
59757;BME280;45631;51.962;5.974;2022-09-12T00:23:42;101624.09;;;14.10;100.00
59757;BME280;45631;51.962;5.974;2022-09-12T00:26:11;101618.06;;;14.08;100.00
59757;BME280;45631;51.962;5.974;2022-09-12T00:28:41;101620.03;;;14.04;100.00
59757;BME280;45631;51.962;5.974;2022-09-12T00:31:11;101624.72;;;14.13;100.00
59757;BME280;45631;51.962;5.974;2022-09-12T00:33:39;101615.19;;;13.98;100.00
59757;BME280;45631;51.962;5.974;2022-09-12T00:36:14;101614.31;;;13.97;100.00
59757;BME280;45631;51.962;5.974;2022-09-12T00:38:43;101609.28;;;14.07;100.00
59757;BME280;45631;51.962;5.974;2022-09-12T00:41:15;101612.66;;;13.96;100.00
59757;BME280;45631;51.962;5.974;2022-09-12T00:43:45;101612.50;;;13.85;100.00
59757;BME280;45631;51.962;5.974;2022-09-12T00:46:25;101618.66;;;13.98;100.00
59757;BME280;45631;51.962;5.974;2022-09-12T00:48:57;101618.66;;;13.98;100.00
59757;BME280;45631;51.962;5.974;2022-09-12T00:51:28;101611.56;;;13.86;100.00
59757;BME280;45631;51.962;5.974;2022-09-12T00:53:58;101608.09;;;13.85;100.00
59757;BME280;45631;51.962;5.974;2022-09-12T00:56:27;101596.31;;;13.77;100.00
59757;BME280;45631;51.962;5.974;2022-09-12T00:59:02;101602.03;;;13.71;100.00
59757;BME280;45631;51.962;5.974;2022-09-12T01:01:32;101598.94;;;13.77;100.00
59757;BME280;45631;51.962;5.974;2022-09-12T01:04:01;101592.38;;;13.69;100.00
59757;BME280;45631;51.962;5.974;2022-09-12T01:06:32;101586.75;;;13.61;100.00
59757;BME280;45631;51.962;5.974;2022-09-12T01:09:02;101581.09;;;13.67;100.00
59757;BME280;45631;51.962;5.974;2022-09-12T01:11:31;101592.72;;;13.65;100.00
59757;BME280;45631;51.962;5.974;2022-09-12T01:14:02;101592.38;;;13.69;100.00
59757;BME280;45631;51.962;5.974;2022-09-12T01:16:30;101591.22;;;13.61;100.00
59757;BME280;45631;51.962;5.974;2022-09-12T01:19:11;101590.78;;;13.54;100.00
59757;BME280;45631;51.962;5.974;2022-09-12T01:21:48;101585.38;;;13.56;100.00
59757;BME280;45631;51.962;5.974;2022-09-12T01:24:52;101583.47;;;13.58;100.00
59757;BME280;45631;51.962;5.974;2022-09-12T01:27:39;101587.16;;;13.55;100.00
59757;BME280;45631;51.962;5.974;2022-09-12T01:30:22;101585.66;;;13.51;100.00
59757;BME280;45631;51.962;5.974;2022-09-12T01:33:09;101573.09;;;13.55;100.00
59757;BME280;45631;51.962;5.974;2022-09-12T01:35:45;101569.91;;;13.49;100.00
59757;BME280;45631;51.962;5.974;2022-09-12T01:38:23;101566.53;;;13.47;100.00
59757;BME280;45631;51.962;5.974;2022-09-12T01:41:00;101568.63;;;13.42;100.00
59757;BME280;45631;51.962;5.974;2022-09-12T01:43:33;101560.16;;;13.37;100.00
59757;BME280;45631;51.962;5.974;2022-09-12T01:46:09;101560.59;;;13.44;100.00
59757;BME280;45631;51.962;5.974;2022-09-12T01:48:43;101559.09;;;13.40;100.00
59757;BME280;45631;51.962;5.974;2022-09-12T01:51:19;101549.97;;;13.31;100.00
59757;BME280;45631;51.962;5.974;2022-09-12T01:53:51;101544.47;;;13.34;100.00
59757;BME280;45631;51.962;5.974;2022-09-12T01:56:22;101548.59;;;13.25;100.00
59757;BME280;45631;51.962;5.974;2022-09-12T01:58:55;101543.81;;;13.30;100.00
59757;BME280;45631;51.962;5.974;2022-09-12T02:01:27;101533.97;;;13.19;100.00
59757;BME280;45631;51.962;5.974;2022-09-12T02:04:04;101536.09;;;13.14;100.00
59757;BME280;45631;51.962;5.974;2022-09-12T02:06:38;101536.16;;;13.13;100.00
59757;BME280;45631;51.962;5.974;2022-09-12T02:09:14;101534.28;;;13.15;100.00
59757;BME280;45631;51.962;5.974;2022-09-12T02:11:45;101530.47;;;13.19;100.00
59757;BME280;45631;51.962;5.974;2022-09-12T02:14:19;101532.56;;;13.14;100.00
59757;BME280;45631;51.962;5.974;2022-09-12T02:16:52;101525.00;;;13.22;100.00
59757;BME280;45631;51.962;5.974;2022-09-12T02:19:24;101528.59;;;13.21;100.00
59757;BME280;45631;51.962;5.974;2022-09-12T02:21:58;101530.25;;;13.09;100.00
59757;BME280;45631;51.962;5.974;2022-09-12T02:24:28;101522.53;;;13.06;100.00
59757;BME280;45631;51.962;5.974;2022-09-12T02:27:02;101514.59;;;13.06;100.00
59757;BME280;45631;51.962;5.974;2022-09-12T02:29:31;101520.06;;;13.03;100.00
59757;BME280;45631;51.962;5.974;2022-09-12T02:32:04;101524.16;;;12.94;100.00
59757;BME280;45631;51.962;5.974;2022-09-12T02:34:42;101524.38;;;12.91;100.00
59757;BME280;45631;51.962;5.974;2022-09-12T02:37:20;101529.22;;;12.97;100.00
59757;BME280;45631;51.962;5.974;2022-09-12T02:39:52;101526.22;;;13.04;100.00
59757;BME280;45631;51.962;5.974;2022-09-12T02:42:23;101524.72;;;12.99;100.00
59757;BME280;45631;51.962;5.974;2022-09-12T02:44:53;101524.81;;;12.98;100.00
59757;BME280;45631;51.962;5.974;2022-09-12T02:47:27;101523.94;;;12.97;100.00
59757;BME280;45631;51.962;5.974;2022-09-12T02:49:57;101518.22;;;12.91;100.00
59757;BME280;45631;51.962;5.974;2022-09-12T02:52:26;101517.03;;;12.82;100.00
59757;BME280;45631;51.962;5.974;2022-09-12T02:54:58;101514.50;;;12.80;100.00
59757;BME280;45631;51.962;5.974;2022-09-12T02:57:26;101521.44;;;12.81;100.00
59757;BME280;45631;51.962;5.974;2022-09-12T02:59:56;101519.41;;;12.72;100.00
59757;BME280;45631;51.962;5.974;2022-09-12T03:02:33;101516.66;;;12.74;100.00
59757;BME280;45631;51.962;5.974;2022-09-12T03:05:17;101511.09;;;12.78;100.00
59757;BME280;45631;51.962;5.974;2022-09-12T03:08:05;101506.84;;;12.76;100.00
59757;BME280;45631;51.962;5.974;2022-09-12T03:10:45;101504.78;;;12.81;100.00
59757;BME280;45631;51.962;5.974;2022-09-12T03:13:21;101501.09;;;12.83;100.00
59757;BME280;45631;51.962;5.974;2022-09-12T03:16:03;101499.88;;;12.75;100.00
59757;BME280;45631;51.962;5.974;2022-09-12T03:18:44;101495.66;;;12.72;100.00
59757;BME280;45631;51.962;5.974;2022-09-12T03:21:18;101490.44;;;12.71;100.00
59757;BME280;45631;51.962;5.974;2022-09-12T03:24:01;101490.66;;;12.67;100.00
59757;BME280;45631;51.962;5.974;2022-09-12T03:26:38;101490.09;;;12.62;100.00
59757;BME280;45631;51.962;5.974;2022-09-12T03:29:08;101495.19;;;12.65;100.00
59757;BME280;45631;51.962;5.974;2022-09-12T03:31:47;101488.53;;;12.60;100.00
59757;BME280;45631;51.962;5.974;2022-09-12T03:34:17;101490.97;;;12.63;100.00
59757;BME280;45631;51.962;5.974;2022-09-12T03:36:46;101495.38;;;12.62;100.00
59757;BME280;45631;51.962;5.974;2022-09-12T03:39:17;101490.97;;;12.63;100.00
59757;BME280;45631;51.962;5.974;2022-09-12T03:41:46;101483.88;;;12.63;100.00
59757;BME280;45631;51.962;5.974;2022-09-12T03:44:14;101487.56;;;12.61;100.00
59757;BME280;45631;51.962;5.974;2022-09-12T03:46:41;101490.69;;;12.53;100.00
59757;BME280;45631;51.962;5.974;2022-09-12T03:49:10;101484.28;;;12.57;100.00
59757;BME280;45631;51.962;5.974;2022-09-12T03:51:43;101474.47;;;12.59;100.00
59757;BME280;45631;51.962;5.974;2022-09-12T03:54:11;101470.88;;;12.60;100.00
59757;BME280;45631;51.962;5.974;2022-09-12T03:56:39;101475.13;;;12.63;100.00
59757;BME280;45631;51.962;5.974;2022-09-12T03:59:07;101478.91;;;12.59;100.00
59757;BME280;45631;51.962;5.974;2022-09-12T04:01:35;101476.53;;;12.54;100.00
59757;BME280;45631;51.962;5.974;2022-09-12T04:04:04;101481.81;;;12.54;100.00
59757;BME280;45631;51.962;5.974;2022-09-12T04:06:32;101473.91;;;12.54;100.00
59757;BME280;45631;51.962;5.974;2022-09-12T04:09:04;101474.88;;;12.53;100.00
59757;BME280;45631;51.962;5.974;2022-09-12T04:11:32;101482.84;;;12.51;100.00
59757;BME280;45631;51.962;5.974;2022-09-12T04:14:01;101483.72;;;12.52;100.00
59757;BME280;45631;51.962;5.974;2022-09-12T04:16:29;101480.16;;;12.53;100.00
59757;BME280;45631;51.962;5.974;2022-09-12T04:18:58;101477.50;;;12.53;100.00
59757;BME280;45631;51.962;5.974;2022-09-12T04:21:26;101467.91;;;12.52;100.00
59757;BME280;45631;51.962;5.974;2022-09-12T04:23:54;101473.16;;;12.52;100.00
59757;BME280;45631;51.962;5.974;2022-09-12T04:26:26;101468.16;;;12.47;100.00
59757;BME280;45631;51.962;5.974;2022-09-12T04:28:55;101461.13;;;12.48;100.00
59757;BME280;45631;51.962;5.974;2022-09-12T04:31:25;101459.63;;;12.44;100.00
59757;BME280;45631;51.962;5.974;2022-09-12T04:33:54;101459.63;;;12.44;100.00
59757;BME280;45631;51.962;5.974;2022-09-12T04:36:23;101456.03;;;12.45;100.00
59757;BME280;45631;51.962;5.974;2022-09-12T04:38:52;101456.03;;;12.45;100.00
59757;BME280;45631;51.962;5.974;2022-09-12T04:41:22;101452.44;;;12.46;100.00
59757;BME280;45631;51.962;5.974;2022-09-12T04:43:53;101455.44;;;12.54;100.00
59757;BME280;45631;51.962;5.974;2022-09-12T04:46:24;101462.81;;;12.49;100.00
59757;BME280;45631;51.962;5.974;2022-09-12T04:48:53;101466.59;;;12.45;100.00
59757;BME280;45631;51.962;5.974;2022-09-12T04:51:24;101464.38;;;12.51;100.00
59757;BME280;45631;51.962;5.974;2022-09-12T04:53:55;101466.50;;;12.46;100.00
59757;BME280;45631;51.962;5.974;2022-09-12T04:56:23;101463.66;;;12.49;100.00
59757;BME280;45631;51.962;5.974;2022-09-12T04:58:55;101462.63;;;12.52;100.00
59757;BME280;45631;51.962;5.974;2022-09-12T05:01:27;101464.22;;;12.55;100.00
59757;BME280;45631;51.962;5.974;2022-09-12T05:03:57;101463.06;;;12.59;100.00
59757;BME280;45631;51.962;5.974;2022-09-12T05:06:27;101457.22;;;12.68;100.00
59757;BME280;45631;51.962;5.974;2022-09-12T05:08:56;101459.94;;;12.66;100.00
59757;BME280;45631;51.962;5.974;2022-09-12T05:11:27;101457.13;;;12.70;100.00
59757;BME280;45631;51.962;5.974;2022-09-12T05:14:17;101459.19;;;12.64;100.00
59757;BME280;45631;51.962;5.974;2022-09-12T05:16:45;101453.34;;;12.59;100.00
59757;BME280;45631;51.962;5.974;2022-09-12T05:19:15;101458.34;;;12.64;100.00
59757;BME280;45631;51.962;5.974;2022-09-12T05:21:44;101451.84;;;12.70;100.00
59757;BME280;45631;51.962;5.974;2022-09-12T05:24:14;101456.91;;;12.73;100.00
59757;BME280;45631;51.962;5.974;2022-09-12T05:26:42;101453.03;;;12.78;100.00
59757;BME280;45631;51.962;5.974;2022-09-12T05:29:10;101456.69;;;12.76;100.00
59757;BME280;45631;51.962;5.974;2022-09-12T05:31:40;101461.69;;;12.80;100.00
59757;BME280;45631;51.962;5.974;2022-09-12T05:34:08;101460.66;;;12.83;100.00
59757;BME280;45631;51.962;5.974;2022-09-12T05:36:36;101467.44;;;12.87;100.00
59757;BME280;45631;51.962;5.974;2022-09-12T05:39:05;101464.47;;;12.92;100.00
59757;BME280;45631;51.962;5.974;2022-09-12T05:41:34;101460.25;;;12.89;100.00
59757;BME280;45631;51.962;5.974;2022-09-12T05:44:03;101450.34;;;12.93;100.00
59757;BME280;45631;51.962;5.974;2022-09-12T05:46:36;101458.19;;;13.07;100.00
59757;BME280;45631;51.962;5.974;2022-09-12T05:49:07;101462.06;;;13.01;100.00
59757;BME280;45631;51.962;5.974;2022-09-12T05:51:40;101462.84;;;13.04;100.00
59757;BME280;45631;51.962;5.974;2022-09-12T05:54:11;101465.47;;;13.04;100.00
59757;BME280;45631;51.962;5.974;2022-09-12T05:56:41;101457.34;;;13.07;100.00
59757;BME280;45631;51.962;5.974;2022-09-12T05:59:11;101447.34;;;13.12;100.00
59757;BME280;45631;51.962;5.974;2022-09-12T06:01:40;101461.38;;;13.12;100.00
59757;BME280;45631;51.962;5.974;2022-09-12T06:04:10;101453.34;;;13.14;100.00
59757;BME280;45631;51.962;5.974;2022-09-12T06:06:40;101466.06;;;13.22;100.00
59757;BME280;45631;51.962;5.974;2022-09-12T06:09:11;101462.25;;;13.26;100.00
59757;BME280;45631;51.962;5.974;2022-09-12T06:11:40;101461.00;;;13.31;100.00
59757;BME280;45631;51.962;5.974;2022-09-12T06:14:10;101459.19;;;13.32;100.00
59757;BME280;45631;51.962;5.974;2022-09-12T06:16:38;101458.06;;;13.36;100.00
59757;BME280;45631;51.962;5.974;2022-09-12T06:19:14;101461.47;;;13.38;100.00
59757;BME280;45631;51.962;5.974;2022-09-12T06:21:43;101466.34;;;13.44;100.00
59757;BME280;45631;51.962;5.974;2022-09-12T06:24:12;101462.84;;;13.44;100.00
59757;BME280;45631;51.962;5.974;2022-09-12T06:26:40;101469.41;;;13.51;100.00
59757;BME280;45631;51.962;5.974;2022-09-12T06:29:09;101464.22;;;13.49;100.00
59757;BME280;45631;51.962;5.974;2022-09-12T06:31:40;101466.34;;;13.57;100.00
59757;BME280;45631;51.962;5.974;2022-09-12T06:34:10;101469.72;;;13.59;100.00
59757;BME280;45631;51.962;5.974;2022-09-12T06:36:42;101458.75;;;13.65;100.00
59757;BME280;45631;51.962;5.974;2022-09-12T06:39:12;101460.22;;;13.69;100.00
59757;BME280;45631;51.962;5.974;2022-09-12T06:41:40;101457.38;;;13.73;100.00
59757;BME280;45631;51.962;5.974;2022-09-12T06:44:12;101457.06;;;13.77;100.00
59757;BME280;45631;51.962;5.974;2022-09-12T06:46:43;101455.03;;;13.81;100.00
59757;BME280;45631;51.962;5.974;2022-09-12T06:49:12;101455.34;;;13.89;100.00
59757;BME280;45631;51.962;5.974;2022-09-12T06:51:41;101463.50;;;13.86;100.00
59757;BME280;45631;51.962;5.974;2022-09-12T06:54:11;101459.91;;;13.87;100.00
59757;BME280;45631;51.962;5.974;2022-09-12T06:56:40;101462.13;;;13.93;100.00
59757;BME280;45631;51.962;5.974;2022-09-12T06:59:08;101463.94;;;13.93;100.00
59757;BME280;45631;51.962;5.974;2022-09-12T07:01:37;101463.69;;;13.96;100.00
59757;BME280;45631;51.962;5.974;2022-09-12T07:04:05;101468.69;;;14.00;100.00
59757;BME280;45631;51.962;5.974;2022-09-12T07:06:36;101469.94;;;14.08;100.00
59757;BME280;45631;51.962;5.974;2022-09-12T07:09:10;101466.13;;;14.12;100.00
59757;BME280;45631;51.962;5.974;2022-09-12T07:11:40;101464.44;;;14.24;100.00
59757;BME280;45631;51.962;5.974;2022-09-12T07:14:10;101457.41;;;14.35;100.00
59757;BME280;45631;51.962;5.974;2022-09-12T07:16:40;101462.31;;;14.53;100.00
59757;BME280;45631;51.962;5.974;2022-09-12T07:19:08;101453.84;;;14.61;100.00
59757;BME280;45631;51.962;5.974;2022-09-12T07:21:39;101456.38;;;14.75;100.00
59757;BME280;45631;51.962;5.974;2022-09-12T07:24:09;101451.28;;;14.96;100.00
59757;BME280;45631;51.962;5.974;2022-09-12T07:26:38;101445.31;;;15.06;100.00
59757;BME280;45631;51.962;5.974;2022-09-12T07:29:12;101444.50;;;15.16;100.00
59757;BME280;45631;51.962;5.974;2022-09-12T07:32:02;101439.94;;;15.18;100.00
59757;BME280;45631;51.962;5.974;2022-09-12T07:34:31;101441.75;;;15.29;100.00
59757;BME280;45631;51.962;5.974;2022-09-12T07:36:59;101443.09;;;15.35;100.00
59757;BME280;45631;51.962;5.974;2022-09-12T07:39:28;101438.78;;;15.34;100.00
59757;BME280;45631;51.962;5.974;2022-09-12T07:41:59;101446.13;;;15.42;100.00
59757;BME280;45631;51.962;5.974;2022-09-12T07:44:27;101451.97;;;15.69;100.00
59757;BME280;45631;51.962;5.974;2022-09-12T07:46:55;101442.47;;;15.89;100.00
59757;BME280;45631;51.962;5.974;2022-09-12T07:49:23;101443.09;;;16.04;100.00
59757;BME280;45631;51.962;5.974;2022-09-12T07:51:51;101449.72;;;16.21;100.00
59757;BME280;45631;51.962;5.974;2022-09-12T07:54:22;101447.41;;;16.39;100.00
59757;BME280;45631;51.962;5.974;2022-09-12T07:56:52;101455.34;;;16.62;100.00
59757;BME280;45631;51.962;5.974;2022-09-12T07:59:20;101452.16;;;16.80;100.00
59757;BME280;45631;51.962;5.974;2022-09-12T08:02:10;101446.44;;;16.84;100.00
59757;BME280;45631;51.962;5.974;2022-09-12T08:04:42;101453.31;;;16.98;100.00
59757;BME280;45631;51.962;5.974;2022-09-12T08:07:13;101447.72;;;17.01;100.00
59757;BME280;45631;51.962;5.974;2022-09-12T08:09:41;101448.47;;;17.03;100.00
59757;BME280;45631;51.962;5.974;2022-09-12T08:12:11;101444.56;;;17.08;100.00
59757;BME280;45631;51.962;5.974;2022-09-12T08:14:39;101453.38;;;17.08;100.00
59757;BME280;45631;51.962;5.974;2022-09-12T08:17:07;101449.31;;;17.25;100.00
59757;BME280;45631;51.962;5.974;2022-09-12T08:19:35;101445.09;;;17.44;100.00
59757;BME280;45631;51.962;5.974;2022-09-12T08:22:04;101450.59;;;17.73;100.00
59757;BME280;45631;51.962;5.974;2022-09-12T08:24:32;101457.97;;;17.90;100.00
59757;BME280;45631;51.962;5.974;2022-09-12T08:27:00;101461.00;;;18.07;100.00
59757;BME280;45631;51.962;5.974;2022-09-12T08:29:39;101458.22;;;18.18;100.00
59757;BME280;45631;51.962;5.974;2022-09-12T08:32:07;101455.50;;;18.39;100.00
59757;BME280;45631;51.962;5.974;2022-09-12T08:34:35;101464.09;;;18.53;100.00
59757;BME280;45631;51.962;5.974;2022-09-12T08:37:03;101459.75;;;18.71;100.00
59757;BME280;45631;51.962;5.974;2022-09-12T08:39:31;101454.72;;;18.78;100.00
59757;BME280;45631;51.962;5.974;2022-09-12T08:42:01;101460.50;;;18.93;100.00
59757;BME280;45631;51.962;5.974;2022-09-12T08:44:50;101465.69;;;19.04;100.00
59757;BME280;45631;51.962;5.974;2022-09-12T08:47:26;101463.72;;;19.26;100.00
59757;BME280;45631;51.962;5.974;2022-09-12T08:50:01;101459.66;;;19.41;100.00
59757;BME280;45631;51.962;5.974;2022-09-12T08:52:34;101459.59;;;19.61;100.00
59757;BME280;45631;51.962;5.974;2022-09-12T08:55:10;101455.78;;;19.83;100.00
59757;BME280;45631;51.962;5.974;2022-09-12T08:57:39;101458.38;;;20.03;100.00
59757;BME280;45631;51.962;5.974;2022-09-12T09:00:20;101457.88;;;20.17;100.00
59757;BME280;45631;51.962;5.974;2022-09-12T09:03:03;101452.97;;;20.40;100.00
59757;BME280;45631;51.962;5.974;2022-09-12T09:05:44;101453.22;;;20.65;100.00
59757;BME280;45631;51.962;5.974;2022-09-12T09:08:29;101451.69;;;20.72;97.83
59757;BME280;45631;51.962;5.974;2022-09-12T09:11:06;101453.50;;;20.90;97.05
59757;BME280;45631;51.962;5.974;2022-09-12T09:13:48;101453.25;;;21.19;95.41
59757;BME280;45631;51.962;5.974;2022-09-12T09:16:42;101449.16;;;21.33;93.69
59757;BME280;45631;51.962;5.974;2022-09-12T09:19:14;101449.97;;;21.52;91.58
59757;BME280;45631;51.962;5.974;2022-09-12T09:21:46;101448.91;;;21.63;88.85
59757;BME280;45631;51.962;5.974;2022-09-12T09:24:22;101446.47;;;21.77;88.98
59757;BME280;45631;51.962;5.974;2022-09-12T09:26:55;101435.56;;;22.05;88.63
59757;BME280;45631;51.962;5.974;2022-09-12T09:29:27;101437.28;;;22.15;87.42
59757;BME280;45631;51.962;5.974;2022-09-12T09:32:00;101435.63;;;22.30;89.19
59757;BME280;45631;51.962;5.974;2022-09-12T09:34:30;101427.69;;;22.55;85.18
59757;BME280;45631;51.962;5.974;2022-09-12T09:37:03;101432.06;;;22.72;84.00
59757;BME280;45631;51.962;5.974;2022-09-12T09:39:47;101423.84;;;22.74;81.85
59757;BME280;45631;51.962;5.974;2022-09-12T09:42:25;101424.88;;;22.89;81.95
59757;BME280;45631;51.962;5.974;2022-09-12T09:44:57;101429.28;;;23.15;82.17
59757;BME280;45631;51.962;5.974;2022-09-12T09:47:28;101415.97;;;23.46;81.77
59757;BME280;45631;51.962;5.974;2022-09-12T09:49:56;101412.72;;;23.68;78.58
59757;BME280;45631;51.962;5.974;2022-09-12T09:52:27;101411.34;;;23.88;77.36
59757;BME280;45631;51.962;5.974;2022-09-12T09:54:58;101412.50;;;23.77;76.88
59757;BME280;45631;51.962;5.974;2022-09-12T09:57:43;101402.72;;;24.01;76.07
59757;BME280;45631;51.962;5.974;2022-09-12T10:00:27;101407.28;;;24.24;77.06
59757;BME280;45631;51.962;5.974;2022-09-12T10:03:04;101407.38;;;24.39;75.51
59757;BME280;45631;51.962;5.974;2022-09-12T10:05:44;101409.78;;;24.57;75.22
59757;BME280;45631;51.962;5.974;2022-09-12T10:08:19;101408.38;;;24.92;77.05
59757;BME280;45631;51.962;5.974;2022-09-12T10:10:53;101402.88;;;25.24;74.58
59757;BME280;45631;51.962;5.974;2022-09-12T10:13:24;101389.69;;;25.29;70.69
59757;BME280;45631;51.962;5.974;2022-09-12T10:15:56;101387.88;;;25.44;70.06
59757;BME280;45631;51.962;5.974;2022-09-12T10:18:40;101380.91;;;25.65;68.50
59757;BME280;45631;51.962;5.974;2022-09-12T10:21:14;101378.38;;;25.93;65.95
59757;BME280;45631;51.962;5.974;2022-09-12T10:23:45;101385.50;;;26.01;66.62
59757;BME280;45631;51.962;5.974;2022-09-12T10:26:16;101378.72;;;26.05;65.93
59757;BME280;45631;51.962;5.974;2022-09-12T10:28:49;101372.34;;;26.28;69.87
59757;BME280;45631;51.962;5.974;2022-09-12T10:31:24;101368.50;;;26.59;66.62
59757;BME280;45631;51.962;5.974;2022-09-12T10:33:57;101359.91;;;26.70;65.19
59757;BME280;45631;51.962;5.974;2022-09-12T10:36:35;101359.31;;;26.75;63.17
59757;BME280;45631;51.962;5.974;2022-09-12T10:39:04;101360.97;;;26.97;62.18
59757;BME280;45631;51.962;5.974;2022-09-12T10:41:37;101354.47;;;27.20;59.44
59757;BME280;45631;51.962;5.974;2022-09-12T10:44:14;101354.84;;;26.82;58.20
59757;BME280;45631;51.962;5.974;2022-09-12T10:46:43;101349.41;;;27.10;55.22
59757;BME280;45631;51.962;5.974;2022-09-12T10:49:19;101356.13;;;27.21;55.21
59757;BME280;45631;51.962;5.974;2022-09-12T10:51:49;101352.72;;;27.06;52.85
59757;BME280;45631;51.962;5.974;2022-09-12T10:54:20;101344.56;;;27.62;54.48
59757;BME280;45631;51.962;5.974;2022-09-12T10:57:00;101339.91;;;27.98;50.84
59757;BME280;45631;51.962;5.974;2022-09-12T10:59:46;101337.06;;;28.26;49.74
59757;BME280;45631;51.962;5.974;2022-09-12T11:02:24;101340.44;;;28.48;50.11
59757;BME280;45631;51.962;5.974;2022-09-12T11:05:01;101337.09;;;28.60;46.86
59757;BME280;45631;51.962;5.974;2022-09-12T11:07:39;101327.94;;;28.61;48.73
59757;BME280;45631;51.962;5.974;2022-09-12T11:10:26;101330.03;;;28.79;46.31
59757;BME280;45631;51.962;5.974;2022-09-12T11:13:13;101321.28;;;28.43;46.27
59757;BME280;45631;51.962;5.974;2022-09-12T11:16:03;101315.06;;;28.76;46.38
59757;BME280;45631;51.962;5.974;2022-09-12T11:18:56;101315.84;;;28.90;46.56
59757;BME280;45631;51.962;5.974;2022-09-12T11:21:46;101306.44;;;29.13;44.64
59757;BME280;45631;51.962;5.974;2022-09-12T11:24:29;101297.38;;;29.53;44.21
59757;BME280;45631;51.962;5.974;2022-09-12T11:27:12;101295.34;;;29.48;43.90
59757;BME280;45631;51.962;5.974;2022-09-12T11:29:47;101294.19;;;28.97;44.08
59757;BME280;45631;51.962;5.974;2022-09-12T11:35:32;101298.66;;;29.43;43.69
59757;BME280;45631;51.962;5.974;2022-09-12T11:38:14;101290.16;;;29.78;43.13
59757;BME280;45631;51.962;5.974;2022-09-12T11:40:49;101291.84;;;29.79;42.28
59757;BME280;45631;51.962;5.974;2022-09-12T11:43:29;101295.06;;;29.63;41.24
59757;BME280;45631;51.962;5.974;2022-09-12T11:46:04;101305.88;;;30.08;41.87
59757;BME280;45631;51.962;5.974;2022-09-12T11:48:37;101302.38;;;29.56;41.98
59757;BME280;45631;51.962;5.974;2022-09-12T11:51:17;101300.81;;;29.73;40.52
59757;BME280;45631;51.962;5.974;2022-09-12T11:53:57;101302.78;;;29.98;42.09
59757;BME280;45631;51.962;5.974;2022-09-12T11:56:26;101307.63;;;29.96;39.80
59757;BME280;45631;51.962;5.974;2022-09-12T11:59:00;101304.59;;;30.11;39.56
59757;BME280;45631;51.962;5.974;2022-09-12T12:01:34;101302.97;;;30.03;39.85
59757;BME280;45631;51.962;5.974;2022-09-12T12:04:11;101306.72;;;30.59;41.00
59757;BME280;45631;51.962;5.974;2022-09-12T12:06:48;101309.34;;;30.15;39.66
59757;BME280;45631;51.962;5.974;2022-09-12T12:09:21;101301.34;;;30.27;40.10
59757;BME280;45631;51.962;5.974;2022-09-12T12:11:53;101295.22;;;29.68;39.45
59757;BME280;45631;51.962;5.974;2022-09-12T12:14:27;101294.38;;;30.06;39.47
59757;BME280;45631;51.962;5.974;2022-09-12T12:16:57;101297.00;;;30.20;39.72
59757;BME280;45631;51.962;5.974;2022-09-12T12:19:32;101296.97;;;30.26;39.61
59757;BME280;45631;51.962;5.974;2022-09-12T12:22:17;101309.09;;;30.56;39.79
59757;BME280;45631;51.962;5.974;2022-09-12T12:25:02;101305.22;;;30.63;38.71
59757;BME280;45631;51.962;5.974;2022-09-12T12:27:49;101298.22;;;30.56;38.81
59757;BME280;45631;51.962;5.974;2022-09-12T12:34:01;101283.84;;;30.92;37.61
59757;BME280;45631;51.962;5.974;2022-09-12T12:36:40;101285.94;;;30.53;38.28
59757;BME280;45631;51.962;5.974;2022-09-12T12:48:52;101269.75;;;30.83;38.91
59757;BME280;45631;51.962;5.974;2022-09-12T12:51:53;101264.34;;;31.39;38.08
59757;BME280;45631;51.962;5.974;2022-09-12T12:54:28;101261.28;;;31.17;37.72
59757;BME280;45631;51.962;5.974;2022-09-12T12:57:02;101248.91;;;31.21;37.09
59757;BME280;45631;51.962;5.974;2022-09-12T12:59:33;101247.09;;;31.64;36.85
59757;BME280;45631;51.962;5.974;2022-09-12T13:02:03;101248.53;;;31.17;36.14
59757;BME280;45631;51.962;5.974;2022-09-12T13:04:31;101245.91;;;31.41;36.79
59757;BME280;45631;51.962;5.974;2022-09-12T13:07:03;101235.97;;;31.35;36.87
59757;BME280;45631;51.962;5.974;2022-09-12T13:09:37;101237.19;;;31.69;36.08
59757;BME280;45631;51.962;5.974;2022-09-12T13:12:17;101236.97;;;32.25;35.85
59757;BME280;45631;51.962;5.974;2022-09-12T13:14:52;101230.16;;;32.04;35.64
59757;BME280;45631;51.962;5.974;2022-09-12T13:17:28;101219.94;;;31.64;36.01
59757;BME280;45631;51.962;5.974;2022-09-12T13:20:17;101228.94;;;31.46;35.36
59757;BME280;45631;51.962;5.974;2022-09-12T13:22:56;101219.34;;;31.43;36.41
59757;BME280;45631;51.962;5.974;2022-09-12T13:25:27;101220.56;;;31.78;35.50
59757;BME280;45631;51.962;5.974;2022-09-12T13:27:58;101208.28;;;31.87;35.47
59757;BME280;45631;51.962;5.974;2022-09-12T13:30:32;101207.19;;;31.76;36.97